sensor_id;sensor_type;location;lat;lon;timestamp;P1;durP1;ratioP1;P2;durP2;ratioP2
35022;SDS011;21214;44.912;8.204;2024-03-02T00:00:10;8.05;;;7.25;;
35022;SDS011;21214;44.912;8.204;2024-03-02T00:02:42;7.88;;;7.28;;
35022;SDS011;21214;44.912;8.204;2024-03-02T00:05:13;8.75;;;8.05;;
35022;SDS011;21214;44.912;8.204;2024-03-02T00:07:41;9.30;;;8.60;;
35022;SDS011;21214;44.912;8.204;2024-03-02T00:10:08;10.13;;;9.13;;
35022;SDS011;21214;44.912;8.204;2024-03-02T00:12:37;9.73;;;9.02;;
35022;SDS011;21214;44.912;8.204;2024-03-02T00:15:19;10.05;;;9.20;;
35022;SDS011;21214;44.912;8.204;2024-03-02T00:18:10;9.52;;;8.68;;
35022;SDS011;21214;44.912;8.204;2024-03-02T00:20:40;10.57;;;9.57;;
35022;SDS011;21214;44.912;8.204;2024-03-02T00:23:06;9.50;;;8.50;;
35022;SDS011;21214;44.912;8.204;2024-03-02T00:25:37;10.02;;;9.07;;
35022;SDS011;21214;44.912;8.204;2024-03-02T00:28:05;9.85;;;8.95;;
35022;SDS011;21214;44.912;8.204;2024-03-02T00:30:50;9.10;;;8.38;;
35022;SDS011;21214;44.912;8.204;2024-03-02T00:33:16;9.38;;;8.68;;
35022;SDS011;21214;44.912;8.204;2024-03-02T00:35:44;9.15;;;8.25;;
35022;SDS011;21214;44.912;8.204;2024-03-02T00:38:09;9.27;;;7.47;;
35022;SDS011;21214;44.912;8.204;2024-03-02T00:40:35;8.68;;;7.85;;
35022;SDS011;21214;44.912;8.204;2024-03-02T00:43:01;8.88;;;8.18;;
35022;SDS011;21214;44.912;8.204;2024-03-02T00:45:28;10.13;;;7.90;;
35022;SDS011;21214;44.912;8.204;2024-03-02T00:47:54;8.40;;;7.60;;
35022;SDS011;21214;44.912;8.204;2024-03-02T00:50:19;9.10;;;8.30;;
35022;SDS011;21214;44.912;8.204;2024-03-02T00:52:45;8.90;;;8.20;;
35022;SDS011;21214;44.912;8.204;2024-03-02T00:55:13;8.93;;;8.20;;
35022;SDS011;21214;44.912;8.204;2024-03-02T00:57:39;8.05;;;7.45;;
35022;SDS011;21214;44.912;8.204;2024-03-02T01:00:05;8.68;;;7.97;;
35022;SDS011;21214;44.912;8.204;2024-03-02T01:02:35;8.48;;;7.78;;
35022;SDS011;21214;44.912;8.204;2024-03-02T01:05:00;8.13;;;7.53;;
35022;SDS011;21214;44.912;8.204;2024-03-02T01:07:26;8.43;;;7.72;;
35022;SDS011;21214;44.912;8.204;2024-03-02T01:09:51;7.72;;;7.13;;
35022;SDS011;21214;44.912;8.204;2024-03-02T01:12:17;7.97;;;7.32;;
35022;SDS011;21214;44.912;8.204;2024-03-02T01:14:42;8.70;;;7.88;;
35022;SDS011;21214;44.912;8.204;2024-03-02T01:17:08;7.70;;;7.10;;
35022;SDS011;21214;44.912;8.204;2024-03-02T01:19:33;8.13;;;7.45;;
35022;SDS011;21214;44.912;8.204;2024-03-02T01:21:59;9.35;;;7.80;;
35022;SDS011;21214;44.912;8.204;2024-03-02T01:24:24;7.68;;;6.93;;
35022;SDS011;21214;44.912;8.204;2024-03-02T01:26:50;8.23;;;7.43;;
35022;SDS011;21214;44.912;8.204;2024-03-02T01:29:15;8.63;;;7.75;;
35022;SDS011;21214;44.912;8.204;2024-03-02T01:31:41;7.97;;;7.28;;
35022;SDS011;21214;44.912;8.204;2024-03-02T01:34:07;8.35;;;7.47;;
35022;SDS011;21214;44.912;8.204;2024-03-02T01:36:33;6.75;;;6.25;;
35022;SDS011;21214;44.912;8.204;2024-03-02T01:38:59;7.32;;;6.72;;
35022;SDS011;21214;44.912;8.204;2024-03-02T01:41:24;7.78;;;7.07;;
35022;SDS011;21214;44.912;8.204;2024-03-02T01:43:50;7.63;;;7.03;;
35022;SDS011;21214;44.912;8.204;2024-03-02T01:46:15;8.02;;;7.35;;
35022;SDS011;21214;44.912;8.204;2024-03-02T01:48:41;8.23;;;7.53;;
35022;SDS011;21214;44.912;8.204;2024-03-02T01:51:07;7.93;;;7.22;;
35022;SDS011;21214;44.912;8.204;2024-03-02T01:53:34;7.70;;;7.03;;
35022;SDS011;21214;44.912;8.204;2024-03-02T01:56:00;8.98;;;8.23;;
35022;SDS011;21214;44.912;8.204;2024-03-02T01:58:27;8.43;;;7.55;;
35022;SDS011;21214;44.912;8.204;2024-03-02T02:00:53;8.65;;;7.90;;
35022;SDS011;21214;44.912;8.204;2024-03-02T02:03:18;9.00;;;8.30;;
35022;SDS011;21214;44.912;8.204;2024-03-02T02:05:44;9.43;;;8.57;;
35022;SDS011;21214;44.912;8.204;2024-03-02T02:08:10;9.65;;;8.45;;
35022;SDS011;21214;44.912;8.204;2024-03-02T02:10:36;8.70;;;7.97;;
35022;SDS011;21214;44.912;8.204;2024-03-02T02:13:01;8.57;;;7.88;;
35022;SDS011;21214;44.912;8.204;2024-03-02T02:15:31;10.05;;;9.15;;
35022;SDS011;21214;44.912;8.204;2024-03-02T02:17:57;9.85;;;8.95;;
35022;SDS011;21214;44.912;8.204;2024-03-02T02:20:23;10.35;;;8.95;;
35022;SDS011;21214;44.912;8.204;2024-03-02T02:22:59;10.50;;;9.60;;
35022;SDS011;21214;44.912;8.204;2024-03-02T02:25:26;12.30;;;9.82;;
35022;SDS011;21214;44.912;8.204;2024-03-02T02:27:52;10.05;;;9.20;;
35022;SDS011;21214;44.912;8.204;2024-03-02T02:30:21;11.60;;;10.45;;
35022;SDS011;21214;44.912;8.204;2024-03-02T02:32:48;10.05;;;9.25;;
35022;SDS011;21214;44.912;8.204;2024-03-02T02:35:15;11.30;;;10.18;;
35022;SDS011;21214;44.912;8.204;2024-03-02T02:37:40;11.63;;;10.63;;
35022;SDS011;21214;44.912;8.204;2024-03-02T02:40:06;11.60;;;10.60;;
35022;SDS011;21214;44.912;8.204;2024-03-02T02:42:32;11.57;;;10.57;;
35022;SDS011;21214;44.912;8.204;2024-03-02T02:44:58;11.05;;;10.20;;
35022;SDS011;21214;44.912;8.204;2024-03-02T02:47:25;11.90;;;10.90;;
35022;SDS011;21214;44.912;8.204;2024-03-02T02:49:51;11.93;;;11.02;;
35022;SDS011;21214;44.912;8.204;2024-03-02T02:52:16;12.15;;;11.23;;
35022;SDS011;21214;44.912;8.204;2024-03-02T02:54:43;12.25;;;11.18;;
35022;SDS011;21214;44.912;8.204;2024-03-02T02:57:09;12.35;;;11.20;;
35022;SDS011;21214;44.912;8.204;2024-03-02T02:59:35;12.35;;;11.00;;
35022;SDS011;21214;44.912;8.204;2024-03-02T03:02:01;12.50;;;11.35;;
35022;SDS011;21214;44.912;8.204;2024-03-02T03:04:26;13.18;;;11.98;;
35022;SDS011;21214;44.912;8.204;2024-03-02T03:06:52;12.63;;;11.52;;
35022;SDS011;21214;44.912;8.204;2024-03-02T03:09:17;12.38;;;11.27;;
35022;SDS011;21214;44.912;8.204;2024-03-02T03:11:43;13.00;;;11.75;;
35022;SDS011;21214;44.912;8.204;2024-03-02T03:14:08;11.93;;;10.88;;
35022;SDS011;21214;44.912;8.204;2024-03-02T03:16:34;12.38;;;11.18;;
35022;SDS011;21214;44.912;8.204;2024-03-02T03:18:59;12.20;;;11.07;;
35022;SDS011;21214;44.912;8.204;2024-03-02T03:21:25;11.95;;;10.95;;
35022;SDS011;21214;44.912;8.204;2024-03-02T03:23:50;13.02;;;11.73;;
35022;SDS011;21214;44.912;8.204;2024-03-02T03:26:16;12.70;;;11.35;;
35022;SDS011;21214;44.912;8.204;2024-03-02T03:28:41;12.55;;;11.23;;
35022;SDS011;21214;44.912;8.204;2024-03-02T03:31:07;12.75;;;11.70;;
35022;SDS011;21214;44.912;8.204;2024-03-02T03:33:32;13.68;;;12.48;;
35022;SDS011;21214;44.912;8.204;2024-03-02T03:35:58;12.82;;;11.57;;
35022;SDS011;21214;44.912;8.204;2024-03-02T03:38:23;12.95;;;11.63;;
35022;SDS011;21214;44.912;8.204;2024-03-02T03:40:49;13.23;;;11.95;;
35022;SDS011;21214;44.912;8.204;2024-03-02T03:43:15;13.15;;;11.88;;
35022;SDS011;21214;44.912;8.204;2024-03-02T03:45:40;13.32;;;12.13;;
35022;SDS011;21214;44.912;8.204;2024-03-02T03:48:06;12.43;;;11.25;;
35022;SDS011;21214;44.912;8.204;2024-03-02T03:50:32;12.73;;;11.48;;
35022;SDS011;21214;44.912;8.204;2024-03-02T03:52:57;12.30;;;11.23;;
35022;SDS011;21214;44.912;8.204;2024-03-02T03:55:23;12.35;;;11.27;;
35022;SDS011;21214;44.912;8.204;2024-03-02T03:57:48;12.95;;;11.60;;
35022;SDS011;21214;44.912;8.204;2024-03-02T04:00:14;12.60;;;11.48;;
35022;SDS011;21214;44.912;8.204;2024-03-02T04:02:40;12.98;;;11.73;;
35022;SDS011;21214;44.912;8.204;2024-03-02T04:05:05;13.40;;;12.10;;
35022;SDS011;21214;44.912;8.204;2024-03-02T04:07:34;13.20;;;11.80;;
35022;SDS011;21214;44.912;8.204;2024-03-02T04:10:05;11.60;;;10.60;;
35022;SDS011;21214;44.912;8.204;2024-03-02T04:12:33;12.05;;;10.93;;
35022;SDS011;21214;44.912;8.204;2024-03-02T04:15:00;12.90;;;10.20;;
35022;SDS011;21214;44.912;8.204;2024-03-02T04:17:26;10.30;;;9.40;;
35022;SDS011;21214;44.912;8.204;2024-03-02T04:19:52;10.63;;;9.73;;
35022;SDS011;21214;44.912;8.204;2024-03-02T04:22:17;10.82;;;9.93;;
35022;SDS011;21214;44.912;8.204;2024-03-02T04:24:43;12.32;;;11.13;;
35022;SDS011;21214;44.912;8.204;2024-03-02T04:27:09;11.55;;;10.45;;
35022;SDS011;21214;44.912;8.204;2024-03-02T04:29:37;11.50;;;10.50;;
35022;SDS011;21214;44.912;8.204;2024-03-02T04:32:02;12.15;;;11.15;;
35022;SDS011;21214;44.912;8.204;2024-03-02T04:34:28;17.45;;;15.75;;
35022;SDS011;21214;44.912;8.204;2024-03-02T04:36:53;17.35;;;15.65;;
35022;SDS011;21214;44.912;8.204;2024-03-02T04:39:19;19.75;;;15.60;;
35022;SDS011;21214;44.912;8.204;2024-03-02T04:41:44;17.20;;;15.60;;
35022;SDS011;21214;44.912;8.204;2024-03-02T04:44:10;18.10;;;16.40;;
35022;SDS011;21214;44.912;8.204;2024-03-02T04:46:35;18.17;;;16.30;;
35022;SDS011;21214;44.912;8.204;2024-03-02T04:49:01;17.90;;;16.05;;
35022;SDS011;21214;44.912;8.204;2024-03-02T04:51:27;18.30;;;16.50;;
35022;SDS011;21214;44.912;8.204;2024-03-02T04:53:52;20.27;;;18.08;;
35022;SDS011;21214;44.912;8.204;2024-03-02T04:56:18;19.60;;;17.70;;
35022;SDS011;21214;44.912;8.204;2024-03-02T04:59:02;18.90;;;17.10;;
35022;SDS011;21214;44.912;8.204;2024-03-02T05:01:27;19.55;;;17.75;;
35022;SDS011;21214;44.912;8.204;2024-03-02T05:03:53;18.83;;;17.00;;
35022;SDS011;21214;44.912;8.204;2024-03-02T05:06:18;19.35;;;17.55;;
35022;SDS011;21214;44.912;8.204;2024-03-02T05:08:44;17.35;;;15.68;;
35022;SDS011;21214;44.912;8.204;2024-03-02T05:11:10;16.90;;;15.25;;
35022;SDS011;21214;44.912;8.204;2024-03-02T05:14:07;18.88;;;16.90;;
35022;SDS011;21214;44.912;8.204;2024-03-02T05:16:36;18.13;;;16.00;;
35022;SDS011;21214;44.912;8.204;2024-03-02T05:19:05;17.45;;;15.82;;
35022;SDS011;21214;44.912;8.204;2024-03-02T05:21:33;19.15;;;17.27;;
35022;SDS011;21214;44.912;8.204;2024-03-02T05:23:59;21.13;;;19.00;;
35022;SDS011;21214;44.912;8.204;2024-03-02T05:26:25;21.00;;;19.00;;
35022;SDS011;21214;44.912;8.204;2024-03-02T05:28:51;21.73;;;18.80;;
35022;SDS011;21214;44.912;8.204;2024-03-02T05:31:16;20.67;;;18.67;;
35022;SDS011;21214;44.912;8.204;2024-03-02T05:33:43;22.10;;;19.92;;
35022;SDS011;21214;44.912;8.204;2024-03-02T05:36:09;21.70;;;19.50;;
35022;SDS011;21214;44.912;8.204;2024-03-02T05:38:34;22.45;;;20.25;;
35022;SDS011;21214;44.912;8.204;2024-03-02T05:41:00;23.08;;;20.77;;
35022;SDS011;21214;44.912;8.204;2024-03-02T05:43:26;21.88;;;19.65;;
35022;SDS011;21214;44.912;8.204;2024-03-02T05:45:51;23.88;;;21.38;;
35022;SDS011;21214;44.912;8.204;2024-03-02T05:48:17;24.42;;;21.92;;
35022;SDS011;21214;44.912;8.204;2024-03-02T05:50:42;26.50;;;23.00;;
35022;SDS011;21214;44.912;8.204;2024-03-02T05:53:08;25.20;;;21.73;;
35022;SDS011;21214;44.912;8.204;2024-03-02T05:55:33;26.90;;;24.02;;
35022;SDS011;21214;44.912;8.204;2024-03-02T05:57:59;28.45;;;25.40;;
35022;SDS011;21214;44.912;8.204;2024-03-02T06:00:44;30.73;;;26.30;;
35022;SDS011;21214;44.912;8.204;2024-03-02T06:03:10;29.98;;;25.80;;
35022;SDS011;21214;44.912;8.204;2024-03-02T06:05:35;30.98;;;26.55;;
35022;SDS011;21214;44.912;8.204;2024-03-02T06:08:01;31.95;;;28.48;;
35022;SDS011;21214;44.912;8.204;2024-03-02T06:10:27;30.52;;;27.00;;
35022;SDS011;21214;44.912;8.204;2024-03-02T06:12:53;31.63;;;28.17;;
35022;SDS011;21214;44.912;8.204;2024-03-02T06:15:18;30.65;;;27.35;;
35022;SDS011;21214;44.912;8.204;2024-03-02T06:17:44;32.72;;;29.00;;
35022;SDS011;21214;44.912;8.204;2024-03-02T06:20:09;32.30;;;27.88;;
35022;SDS011;21214;44.912;8.204;2024-03-02T06:22:35;30.55;;;26.80;;
35022;SDS011;21214;44.912;8.204;2024-03-02T06:25:00;30.98;;;27.33;;
35022;SDS011;21214;44.912;8.204;2024-03-02T06:27:26;30.30;;;26.10;;
35022;SDS011;21214;44.912;8.204;2024-03-02T06:29:52;29.83;;;26.58;;
35022;SDS011;21214;44.912;8.204;2024-03-02T06:32:18;32.55;;;28.13;;
35022;SDS011;21214;44.912;8.204;2024-03-02T06:34:43;32.10;;;26.83;;
35022;SDS011;21214;44.912;8.204;2024-03-02T06:37:09;31.42;;;27.33;;
35022;SDS011;21214;44.912;8.204;2024-03-02T06:39:35;32.97;;;29.05;;
35022;SDS011;21214;44.912;8.204;2024-03-02T06:42:01;33.45;;;29.05;;
35022;SDS011;21214;44.912;8.204;2024-03-02T06:44:26;33.42;;;29.15;;
35022;SDS011;21214;44.912;8.204;2024-03-02T06:46:52;36.25;;;30.15;;
35022;SDS011;21214;44.912;8.204;2024-03-02T06:49:17;34.10;;;28.02;;
35022;SDS011;21214;44.912;8.204;2024-03-02T06:51:43;33.25;;;28.05;;
35022;SDS011;21214;44.912;8.204;2024-03-02T06:54:11;30.45;;;27.15;;
35022;SDS011;21214;44.912;8.204;2024-03-02T06:56:36;31.90;;;27.88;;
35022;SDS011;21214;44.912;8.204;2024-03-02T06:59:03;32.22;;;27.13;;
35022;SDS011;21214;44.912;8.204;2024-03-02T07:01:29;31.23;;;26.80;;
35022;SDS011;21214;44.912;8.204;2024-03-02T07:03:55;31.42;;;26.80;;
35022;SDS011;21214;44.912;8.204;2024-03-02T07:06:20;31.98;;;27.08;;
35022;SDS011;21214;44.912;8.204;2024-03-02T07:08:46;34.17;;;29.00;;
35022;SDS011;21214;44.912;8.204;2024-03-02T07:11:11;34.88;;;29.92;;
35022;SDS011;21214;44.912;8.204;2024-03-02T07:13:36;33.60;;;29.90;;
35022;SDS011;21214;44.912;8.204;2024-03-02T07:16:02;34.35;;;28.95;;
35022;SDS011;21214;44.912;8.204;2024-03-02T07:18:28;34.42;;;29.70;;
35022;SDS011;21214;44.912;8.204;2024-03-02T07:20:53;34.13;;;29.40;;
35022;SDS011;21214;44.912;8.204;2024-03-02T07:23:20;34.92;;;31.15;;
35022;SDS011;21214;44.912;8.204;2024-03-02T07:25:49;32.55;;;27.95;;
35022;SDS011;21214;44.912;8.204;2024-03-02T07:28:15;30.48;;;26.77;;
35022;SDS011;21214;44.912;8.204;2024-03-02T07:30:41;30.45;;;27.15;;
35022;SDS011;21214;44.912;8.204;2024-03-02T07:33:06;29.42;;;26.42;;
35022;SDS011;21214;44.912;8.204;2024-03-02T07:35:32;28.38;;;25.48;;
35022;SDS011;21214;44.912;8.204;2024-03-02T07:37:57;29.42;;;26.30;;
35022;SDS011;21214;44.912;8.204;2024-03-02T07:40:23;27.38;;;24.45;;
35022;SDS011;21214;44.912;8.204;2024-03-02T07:42:49;28.30;;;25.25;;
35022;SDS011;21214;44.912;8.204;2024-03-02T07:45:14;28.63;;;25.52;;
35022;SDS011;21214;44.912;8.204;2024-03-02T07:47:40;27.88;;;24.88;;
35022;SDS011;21214;44.912;8.204;2024-03-02T07:50:06;26.20;;;23.40;;
35022;SDS011;21214;44.912;8.204;2024-03-02T07:52:32;26.88;;;24.08;;
35022;SDS011;21214;44.912;8.204;2024-03-02T07:54:58;24.92;;;22.33;;
35022;SDS011;21214;44.912;8.204;2024-03-02T07:57:24;23.77;;;21.45;;
35022;SDS011;21214;44.912;8.204;2024-03-02T07:59:50;23.83;;;21.42;;
35022;SDS011;21214;44.912;8.204;2024-03-02T08:02:16;24.80;;;22.23;;
35022;SDS011;21214;44.912;8.204;2024-03-02T08:04:41;25.55;;;22.98;;
35022;SDS011;21214;44.912;8.204;2024-03-02T08:07:07;22.23;;;19.33;;
35022;SDS011;21214;44.912;8.204;2024-03-02T08:09:33;21.02;;;18.95;;
35022;SDS011;21214;44.912;8.204;2024-03-02T08:11:59;22.35;;;20.05;;
35022;SDS011;21214;44.912;8.204;2024-03-02T08:14:24;22.17;;;19.92;;
35022;SDS011;21214;44.912;8.204;2024-03-02T08:16:53;18.85;;;16.98;;
35022;SDS011;21214;44.912;8.204;2024-03-02T08:19:18;18.63;;;16.90;;
35022;SDS011;21214;44.912;8.204;2024-03-02T08:21:44;16.63;;;15.13;;
35022;SDS011;21214;44.912;8.204;2024-03-02T08:24:10;17.23;;;15.52;;
35022;SDS011;21214;44.912;8.204;2024-03-02T08:26:35;16.10;;;14.50;;
35022;SDS011;21214;44.912;8.204;2024-03-02T08:29:01;14.57;;;13.23;;
35022;SDS011;21214;44.912;8.204;2024-03-02T08:31:29;15.98;;;14.40;;
35022;SDS011;21214;44.912;8.204;2024-03-02T08:33:55;14.15;;;12.75;;
35022;SDS011;21214;44.912;8.204;2024-03-02T08:36:22;13.15;;;11.57;;
35022;SDS011;21214;44.912;8.204;2024-03-02T08:38:49;11.25;;;10.15;;
35022;SDS011;21214;44.912;8.204;2024-03-02T08:41:15;10.88;;;9.98;;
35022;SDS011;21214;44.912;8.204;2024-03-02T08:43:42;10.48;;;9.45;;
35022;SDS011;21214;44.912;8.204;2024-03-02T08:46:07;8.85;;;8.15;;
35022;SDS011;21214;44.912;8.204;2024-03-02T08:48:33;8.63;;;7.93;;
35022;SDS011;21214;44.912;8.204;2024-03-02T08:50:59;8.85;;;8.05;;
35022;SDS011;21214;44.912;8.204;2024-03-02T08:53:26;8.60;;;7.80;;
35022;SDS011;21214;44.912;8.204;2024-03-02T08:55:51;8.50;;;7.80;;
35022;SDS011;21214;44.912;8.204;2024-03-02T08:58:17;8.90;;;8.20;;
35022;SDS011;21214;44.912;8.204;2024-03-02T09:00:42;9.15;;;8.45;;
35022;SDS011;21214;44.912;8.204;2024-03-02T09:03:08;10.73;;;9.82;;
35022;SDS011;21214;44.912;8.204;2024-03-02T09:05:33;13.77;;;12.48;;
35022;SDS011;21214;44.912;8.204;2024-03-02T09:08:00;16.80;;;15.13;;
35022;SDS011;21214;44.912;8.204;2024-03-02T09:10:26;16.13;;;14.43;;
35022;SDS011;21214;44.912;8.204;2024-03-02T09:12:51;16.55;;;14.85;;
35022;SDS011;21214;44.912;8.204;2024-03-02T09:15:17;15.15;;;13.70;;
35022;SDS011;21214;44.912;8.204;2024-03-02T09:17:43;15.07;;;13.75;;
35022;SDS011;21214;44.912;8.204;2024-03-02T09:20:08;12.32;;;11.23;;
35022;SDS011;21214;44.912;8.204;2024-03-02T09:22:34;15.45;;;13.98;;
35022;SDS011;21214;44.912;8.204;2024-03-02T09:25:00;18.33;;;15.18;;
35022;SDS011;21214;44.912;8.204;2024-03-02T09:27:25;17.05;;;15.45;;
35022;SDS011;21214;44.912;8.204;2024-03-02T09:29:50;19.38;;;15.80;;
35022;SDS011;21214;44.912;8.204;2024-03-02T09:32:16;16.02;;;14.27;;
35022;SDS011;21214;44.912;8.204;2024-03-02T09:34:41;10.90;;;10.00;;
35022;SDS011;21214;44.912;8.204;2024-03-02T09:37:07;11.55;;;10.55;;
35022;SDS011;21214;44.912;8.204;2024-03-02T09:39:33;9.93;;;9.05;;
35022;SDS011;21214;44.912;8.204;2024-03-02T09:41:59;10.25;;;9.35;;
35022;SDS011;21214;44.912;8.204;2024-03-02T09:44:25;10.65;;;9.63;;
35022;SDS011;21214;44.912;8.204;2024-03-02T09:46:51;9.55;;;8.77;;
35022;SDS011;21214;44.912;8.204;2024-03-02T09:49:17;10.40;;;9.52;;
35022;SDS011;21214;44.912;8.204;2024-03-02T09:51:49;6.97;;;6.28;;
35022;SDS011;21214;44.912;8.204;2024-03-02T09:54:20;6.90;;;6.35;;
35022;SDS011;21214;44.912;8.204;2024-03-02T09:56:46;4.63;;;4.32;;
35022;SDS011;21214;44.912;8.204;2024-03-02T09:59:12;4.68;;;4.38;;
35022;SDS011;21214;44.912;8.204;2024-03-02T10:01:54;2.13;;;2.03;;
35022;SDS011;21214;44.912;8.204;2024-03-02T10:04:21;4.40;;;4.00;;
35022;SDS011;21214;44.912;8.204;2024-03-02T10:06:46;4.40;;;2.95;;
35022;SDS011;21214;44.912;8.204;2024-03-02T10:09:13;9.35;;;2.92;;
35022;SDS011;21214;44.912;8.204;2024-03-02T10:14:18;4.60;;;4.28;;
35022;SDS011;21214;44.912;8.204;2024-03-02T10:16:44;4.60;;;4.20;;
35022;SDS011;21214;44.912;8.204;2024-03-02T10:19:19;4.35;;;4.05;;
35022;SDS011;21214;44.912;8.204;2024-03-02T10:21:50;5.30;;;4.90;;
35022;SDS011;21214;44.912;8.204;2024-03-02T10:24:17;5.68;;;5.00;;
35022;SDS011;21214;44.912;8.204;2024-03-02T10:26:43;6.28;;;5.78;;
35022;SDS011;21214;44.912;8.204;2024-03-02T10:29:09;7.13;;;6.45;;
35022;SDS011;21214;44.912;8.204;2024-03-02T10:31:39;7.25;;;6.35;;
35022;SDS011;21214;44.912;8.204;2024-03-02T10:34:05;7.87;;;7.17;;
35022;SDS011;21214;44.912;8.204;2024-03-02T10:36:33;6.50;;;5.93;;
35022;SDS011;21214;44.912;8.204;2024-03-02T10:39:01;6.53;;;5.93;;
35022;SDS011;21214;44.912;8.204;2024-03-02T10:41:34;5.93;;;5.43;;
35022;SDS011;21214;44.912;8.204;2024-03-02T10:44:03;7.20;;;6.60;;
35022;SDS011;21214;44.912;8.204;2024-03-02T10:46:31;6.78;;;6.28;;
35022;SDS011;21214;44.912;8.204;2024-03-02T10:49:03;6.72;;;6.15;;
35022;SDS011;21214;44.912;8.204;2024-03-02T10:51:30;6.70;;;6.10;;
35022;SDS011;21214;44.912;8.204;2024-03-02T10:54:01;7.63;;;6.93;;
35022;SDS011;21214;44.912;8.204;2024-03-02T10:56:32;7.25;;;6.65;;
35022;SDS011;21214;44.912;8.204;2024-03-02T10:59:03;7.38;;;6.63;;
35022;SDS011;21214;44.912;8.204;2024-03-02T11:04:08;7.10;;;6.50;;
35022;SDS011;21214;44.912;8.204;2024-03-02T11:06:36;6.70;;;6.10;;
35022;SDS011;21214;44.912;8.204;2024-03-02T11:09:07;7.15;;;6.55;;
35022;SDS011;21214;44.912;8.204;2024-03-02T11:11:39;8.88;;;7.97;;
35022;SDS011;21214;44.912;8.204;2024-03-02T11:14:10;8.02;;;7.35;;
35022;SDS011;21214;44.912;8.204;2024-03-02T11:16:38;6.55;;;5.95;;
35022;SDS011;21214;44.912;8.204;2024-03-02T11:19:06;5.38;;;4.97;;
35022;SDS011;21214;44.912;8.204;2024-03-02T11:21:35;5.85;;;5.45;;
35022;SDS011;21214;44.912;8.204;2024-03-02T11:26:48;5.50;;;5.00;;
35022;SDS011;21214;44.912;8.204;2024-03-02T11:32:01;5.70;;;5.20;;
35022;SDS011;21214;44.912;8.204;2024-03-02T11:34:33;4.65;;;4.32;;
35022;SDS011;21214;44.912;8.204;2024-03-02T11:37:03;5.22;;;4.50;;
35022;SDS011;21214;44.912;8.204;2024-03-02T11:39:29;4.63;;;4.30;;
35022;SDS011;21214;44.912;8.204;2024-03-02T11:41:55;4.90;;;4.50;;
35022;SDS011;21214;44.912;8.204;2024-03-02T11:44:22;4.93;;;4.53;;
35022;SDS011;21214;44.912;8.204;2024-03-02T11:46:58;4.70;;;4.35;;
35022;SDS011;21214;44.912;8.204;2024-03-02T11:49:37;4.85;;;4.45;;
35022;SDS011;21214;44.912;8.204;2024-03-02T11:52:06;3.92;;;3.63;;
35022;SDS011;21214;44.912;8.204;2024-03-02T11:54:34;4.70;;;4.40;;
35022;SDS011;21214;44.912;8.204;2024-03-02T11:57:04;4.10;;;3.70;;
35022;SDS011;21214;44.912;8.204;2024-03-02T11:59:30;4.80;;;4.40;;
35022;SDS011;21214;44.912;8.204;2024-03-02T12:01:56;6.80;;;4.72;;
35022;SDS011;21214;44.912;8.204;2024-03-02T12:04:22;4.68;;;4.30;;
35022;SDS011;21214;44.912;8.204;2024-03-02T12:06:53;3.28;;;2.97;;
35022;SDS011;21214;44.912;8.204;2024-03-02T12:09:20;2.60;;;2.42;;
35022;SDS011;21214;44.912;8.204;2024-03-02T12:11:46;2.75;;;2.55;;
35022;SDS011;21214;44.912;8.204;2024-03-02T12:14:12;2.10;;;2.00;;
35022;SDS011;21214;44.912;8.204;2024-03-02T12:16:46;3.45;;;1.80;;
35022;SDS011;21214;44.912;8.204;2024-03-02T12:19:12;2.78;;;2.03;;
35022;SDS011;21214;44.912;8.204;2024-03-02T12:21:43;2.03;;;1.92;;
35022;SDS011;21214;44.912;8.204;2024-03-02T12:24:08;1.85;;;1.75;;
35022;SDS011;21214;44.912;8.204;2024-03-02T12:26:34;2.50;;;2.30;;
35022;SDS011;21214;44.912;8.204;2024-03-02T12:29:00;2.10;;;1.90;;
35022;SDS011;21214;44.912;8.204;2024-03-02T12:31:25;2.20;;;2.10;;
35022;SDS011;21214;44.912;8.204;2024-03-02T12:33:51;2.88;;;2.67;;
35022;SDS011;21214;44.912;8.204;2024-03-02T12:36:20;2.30;;;2.10;;
35022;SDS011;21214;44.912;8.204;2024-03-02T12:38:47;2.80;;;1.97;;
35022;SDS011;21214;44.912;8.204;2024-03-02T12:41:16;2.38;;;2.28;;
35022;SDS011;21214;44.912;8.204;2024-03-02T12:43:41;3.78;;;2.72;;
35022;SDS011;21214;44.912;8.204;2024-03-02T12:46:07;2.33;;;2.13;;
35022;SDS011;21214;44.912;8.204;2024-03-02T12:48:34;2.60;;;2.40;;
35022;SDS011;21214;44.912;8.204;2024-03-02T12:51:01;2.78;;;2.58;;
35022;SDS011;21214;44.912;8.204;2024-03-02T12:53:27;2.67;;;2.47;;
35022;SDS011;21214;44.912;8.204;2024-03-02T12:55:53;2.95;;;2.75;;
35022;SDS011;21214;44.912;8.204;2024-03-02T12:58:21;2.88;;;2.67;;
35022;SDS011;21214;44.912;8.204;2024-03-02T13:00:47;2.92;;;2.72;;
35022;SDS011;21214;44.912;8.204;2024-03-02T13:03:13;3.30;;;3.00;;
35022;SDS011;21214;44.912;8.204;2024-03-02T13:08:16;3.60;;;3.30;;
35022;SDS011;21214;44.912;8.204;2024-03-02T13:10:42;3.70;;;3.40;;
35022;SDS011;21214;44.912;8.204;2024-03-02T13:13:10;5.65;;;3.72;;
35022;SDS011;21214;44.912;8.204;2024-03-02T13:15:36;3.53;;;3.15;;
35022;SDS011;21214;44.912;8.204;2024-03-02T13:18:03;3.75;;;3.42;;
35022;SDS011;21214;44.912;8.204;2024-03-02T13:20:32;3.60;;;2.75;;
35022;SDS011;21214;44.912;8.204;2024-03-02T13:22:57;3.25;;;3.00;;
35022;SDS011;21214;44.912;8.204;2024-03-02T13:25:23;2.72;;;2.53;;
35022;SDS011;21214;44.912;8.204;2024-03-02T13:27:49;3.50;;;2.20;;
35022;SDS011;21214;44.912;8.204;2024-03-02T13:30:16;2.10;;;2.00;;
35022;SDS011;21214;44.912;8.204;2024-03-02T13:32:41;2.40;;;2.20;;
35022;SDS011;21214;44.912;8.204;2024-03-02T13:35:07;2.35;;;2.15;;
35022;SDS011;21214;44.912;8.204;2024-03-02T13:37:32;2.42;;;2.25;;
35022;SDS011;21214;44.912;8.204;2024-03-02T13:40:01;2.03;;;1.92;;
35022;SDS011;21214;44.912;8.204;2024-03-02T13:42:32;2.38;;;2.17;;
35022;SDS011;21214;44.912;8.204;2024-03-02T13:44:57;2.15;;;1.98;;
35022;SDS011;21214;44.912;8.204;2024-03-02T13:47:23;2.20;;;2.08;;
35022;SDS011;21214;44.912;8.204;2024-03-02T13:49:48;3.35;;;2.00;;
35022;SDS011;21214;44.912;8.204;2024-03-02T13:52:14;2.17;;;2.05;;
35022;SDS011;21214;44.912;8.204;2024-03-02T13:54:42;2.30;;;2.10;;
35022;SDS011;21214;44.912;8.204;2024-03-02T13:57:12;2.40;;;2.20;;
35022;SDS011;21214;44.912;8.204;2024-03-02T13:59:42;3.55;;;2.60;;
35022;SDS011;21214;44.912;8.204;2024-03-02T14:02:08;3.23;;;2.37;;
35022;SDS011;21214;44.912;8.204;2024-03-02T14:04:34;2.78;;;2.08;;
35022;SDS011;21214;44.912;8.204;2024-03-02T14:07:01;2.30;;;2.10;;
35022;SDS011;21214;44.912;8.204;2024-03-02T14:09:27;2.95;;;2.30;;
35022;SDS011;21214;44.912;8.204;2024-03-02T14:11:53;4.93;;;2.25;;
35022;SDS011;21214;44.912;8.204;2024-03-02T14:14:22;2.03;;;1.92;;
35022;SDS011;21214;44.912;8.204;2024-03-02T14:16:52;1.88;;;1.77;;
35022;SDS011;21214;44.912;8.204;2024-03-02T14:19:18;2.15;;;2.05;;
35022;SDS011;21214;44.912;8.204;2024-03-02T14:21:44;3.25;;;2.03;;
35022;SDS011;21214;44.912;8.204;2024-03-02T14:24:27;1.75;;;1.65;;
35022;SDS011;21214;44.912;8.204;2024-03-02T14:26:57;2.30;;;2.20;;
35022;SDS011;21214;44.912;8.204;2024-03-02T14:29:30;2.45;;;2.25;;
35022;SDS011;21214;44.912;8.204;2024-03-02T14:31:56;2.60;;;2.40;;
35022;SDS011;21214;44.912;8.204;2024-03-02T14:34:25;2.60;;;2.40;;
35022;SDS011;21214;44.912;8.204;2024-03-02T14:36:54;2.40;;;2.20;;
35022;SDS011;21214;44.912;8.204;2024-03-02T14:39:22;3.05;;;2.65;;
35022;SDS011;21214;44.912;8.204;2024-03-02T14:41:48;2.60;;;2.40;;
35022;SDS011;21214;44.912;8.204;2024-03-02T14:44:14;2.95;;;2.75;;
35022;SDS011;21214;44.912;8.204;2024-03-02T14:46:40;3.30;;;2.92;;